Time,TemperatureF,DewpointF,PressureIn,WindDirection,WindDirectionDegrees,WindSpeedMPH,WindSpeedGustMPH,Humidity,HourlyPrecipIn,Conditions,Clouds,dailyrainin,SoftwareType,DateUTC
2013-04-06 00:00:00,42.1,39.7,29.94,WNW,286,0.0,0.0,91,0.00,,---,0.02,VWS V14.01,2013-04-06 04:00:00,
2013-04-06 00:05:00,41.9,39.5,29.94,WNW,286,0.0,0.0,91,0.00,,---,0.00,VWS V14.01,2013-04-06 04:05:00,
2013-04-06 00:10:00,41.8,39.4,29.95,WNW,286,0.0,0.0,91,0.00,,---,0.00,VWS V14.01,2013-04-06 04:10:00,
2013-04-06 00:15:00,41.6,39.2,29.95,WNW,286,0.0,0.0,91,0.00,,---,0.00,VWS V14.01,2013-04-06 04:15:00,
2013-04-06 00:20:00,41.5,39.1,29.95,WNW,286,0.0,0.0,91,0.00,,---,0.00,VWS V14.01,2013-04-06 04:20:00,
2013-04-06 00:25:00,41.3,39.2,29.95,WNW,286,0.0,0.0,92,0.00,,---,0.00,VWS V14.01,2013-04-06 04:25:00,
2013-04-06 00:30:00,41.3,39.2,29.95,WNW,286,0.0,0.0,92,0.00,,---,0.00,VWS V14.01,2013-04-06 04:30:00,
2013-04-06 00:35:00,41.1,39.0,29.95,WNW,286,0.0,0.0,92,0.00,,---,0.00,VWS V14.01,2013-04-06 04:35:00,
2013-04-06 00:40:00,41.0,38.6,29.95,WNW,286,0.0,0.0,91,0.00,,---,0.00,VWS V14.01,2013-04-06 04:40:00,
2013-04-06 00:45:00,40.8,38.7,29.95,WNW,286,0.0,0.0,92,0.00,,---,0.00,VWS V14.01,2013-04-06 04:45:00,
2013-04-06 00:50:00,40.6,38.5,29.95,WNW,286,0.0,0.0,92,0.00,,---,0.00,VWS V14.01,2013-04-06 04:50:00,
2013-04-06 00:55:00,40.5,38.4,29.95,WNW,286,0.0,0.0,92,0.00,,---,0.00,VWS V14.01,2013-04-06 04:55:00,
2013-04-06 01:00:00,40.4,38.3,29.95,WNW,286,0.0,0.0,92,0.00,,---,0.00,VWS V14.01,2013-04-06 05:00:00,
2013-04-06 01:05:00,40.3,38.2,29.96,WNW,286,0.0,0.0,92,0.00,,---,0.00,VWS V14.01,2013-04-06 05:05:00,
2013-04-06 01:10:00,40.1,38.0,29.96,WNW,286,0.0,0.0,92,0.00,,---,0.00,VWS V14.01,2013-04-06 05:10:00,
2013-04-06 01:15:00,40.0,37.9,29.96,WNW,286,0.0,0.0,92,0.00,,---,0.00,VWS V14.01,2013-04-06 05:15:00,
2013-04-06 01:20:00,39.9,37.8,29.96,WNW,286,0.0,0.0,92,0.00,,---,0.00,VWS V14.01,2013-04-06 05:20:00,
2013-04-06 01:25:00,39.7,37.6,29.96,WNW,286,0.0,0.0,92,0.00,,---,0.00,VWS V14.01,2013-04-06 05:25:00,
2013-04-06 01:30:00,39.6,37.5,29.96,WNW,286,0.0,0.0,92,0.00,,---,0.00,VWS V14.01,2013-04-06 05:30:00,
2013-04-06 01:35:00,39.4,37.3,29.96,WNW,286,0.0,0.0,92,0.00,,---,0.00,VWS V14.01,2013-04-06 05:35:00,
2013-04-06 01:40:00,39.2,37.1,29.96,WNW,286,0.0,0.0,92,0.00,,---,0.00,VWS V14.01,2013-04-06 05:40:00,
2013-04-06 01:45:00,39.1,37.0,29.97,WNW,286,0.0,0.0,92,0.00,,---,0.00,VWS V14.01,2013-04-06 05:45:00,
2013-04-06 01:50:00,39.0,36.9,29.97,WNW,286,0.0,0.0,92,0.00,,---,0.00,VWS V14.01,2013-04-06 05:50:00,
2013-04-06 01:55:00,38.9,36.8,29.96,WNW,286,0.0,0.0,92,0.00,,---,0.00,VWS V14.01,2013-04-06 05:55:00,
2013-04-06 02:00:00,38.8,36.7,29.97,WNW,286,0.0,0.0,92,0.00,,---,0.00,VWS V14.01,2013-04-06 06:00:00,
2013-04-06 02:05:00,38.6,36.8,29.97,WNW,286,0.0,0.0,93,0.00,,---,0.00,VWS V14.01,2013-04-06 06:05:00,
2013-04-06 02:10:00,38.4,36.6,29.97,WNW,286,0.0,0.0,93,0.00,,---,0.00,VWS V14.01,2013-04-06 06:10:00,
2013-04-06 02:15:00,38.3,36.5,29.97,WNW,286,0.0,0.0,93,0.00,,---,0.00,VWS V14.01,2013-04-06 06:15:00,
2013-04-06 02:20:00,38.3,36.5,29.97,WNW,286,0.0,0.0,93,0.00,,---,0.00,VWS V14.01,2013-04-06 06:20:00,
2013-04-06 02:25:00,38.2,36.4,29.97,WNW,286,0.0,0.0,93,0.00,,---,0.00,VWS V14.01,2013-04-06 06:25:00,
2013-04-06 02:30:00,38.1,36.3,29.97,WNW,286,0.0,0.0,93,0.00,,---,0.00,VWS V14.01,2013-04-06 06:30:00,
2013-04-06 02:35:00,37.9,36.1,29.97,WNW,286,0.0,0.0,93,0.00,,---,0.00,VWS V14.01,2013-04-06 06:35:00,
2013-04-06 02:40:00,37.8,36.0,29.97,WNW,286,0.0,0.0,93,0.00,,---,0.00,VWS V14.01,2013-04-06 06:40:00,
2013-04-06 02:45:00,37.8,36.0,29.97,WNW,286,0.0,0.0,93,0.00,,---,0.00,VWS V14.01,2013-04-06 06:45:00,
2013-04-06 02:50:00,37.7,35.9,29.97,WNW,286,0.0,0.0,93,0.00,,---,0.00,VWS V14.01,2013-04-06 06:50:00,
2013-04-06 02:55:00,37.6,35.8,29.97,WNW,286,0.0,0.0,93,0.00,,---,0.00,VWS V14.01,2013-04-06 06:55:00,
2013-04-06 03:00:00,37.5,35.7,29.97,WNW,286,0.0,0.0,93,0.00,,---,0.00,VWS V14.01,2013-04-06 07:00:00,
2013-04-06 03:05:00,37.4,35.8,29.97,WNW,286,0.0,0.0,94,0.00,,---,0.00,VWS V14.01,2013-04-06 07:05:00,
2013-04-06 03:11:00,37.3,35.7,29.97,WNW,286,0.0,0.0,94,0.00,,---,0.00,VWS V14.01,2013-04-06 07:11:00,
2013-04-06 03:16:00,37.3,35.7,29.97,WNW,286,0.0,0.0,94,0.00,,---,0.00,VWS V14.01,2013-04-06 07:16:00,
2013-04-06 03:21:00,37.3,35.7,29.98,WNW,286,0.0,0.0,94,0.00,,---,0.00,VWS V14.01,2013-04-06 07:21:00,
2013-04-06 03:26:00,37.2,35.6,29.98,WNW,286,0.0,0.0,94,0.00,,---,0.00,VWS V14.01,2013-04-06 07:26:00,
2013-04-06 03:30:00,38.1,36.3,29.97,WNW,286,0.0,0.0,93,0.00,,---,0.00,VWS V14.01,2013-04-06 07:30:00,
2013-04-06 03:31:00,37.1,35.5,29.98,WNW,286,0.0,1.0,94,0.00,,---,0.00,VWS V14.01,2013-04-06 07:31:00,
2013-04-06 03:36:00,37.1,35.5,29.99,WNW,286,0.0,0.0,94,0.00,,---,0.00,VWS V14.01,2013-04-06 07:36:00,
2013-04-06 03:41:00,37.0,35.4,29.99,WNW,286,0.0,0.0,94,0.00,,---,0.00,VWS V14.01,2013-04-06 07:41:00,
2013-04-06 03:46:00,37.0,35.7,30.00,WNW,286,0.0,0.0,95,0.00,,---,0.00,VWS V14.01,2013-04-06 07:46:00,
2013-04-06 03:51:00,37.0,35.4,30.00,WNW,286,0.0,0.0,94,0.00,,---,0.00,VWS V14.01,2013-04-06 07:51:00,
2013-04-06 03:56:00,37.0,35.4,30.00,WNW,286,0.0,0.0,94,0.00,,---,0.00,VWS V14.01,2013-04-06 07:56:00,
2013-04-06 04:00:00,37.5,35.7,29.97,WNW,286,0.0,0.0,93,0.00,,---,0.00,VWS V14.01,2013-04-06 08:00:00,
2013-04-06 04:01:00,36.9,35.3,30.00,WNW,286,0.0,0.0,94,0.00,,---,0.00,VWS V14.01,2013-04-06 08:01:00,
2013-04-06 04:06:00,36.8,35.2,30.00,WNW,286,0.0,2.0,94,0.00,,---,0.00,VWS V14.01,2013-04-06 08:06:00,
2013-04-06 04:11:00,36.7,35.4,30.01,WNW,286,0.0,2.0,95,0.00,,---,0.00,VWS V14.01,2013-04-06 08:11:00,
2013-04-06 04:16:00,36.6,35.3,30.01,WNW,286,0.0,2.0,95,0.00,,---,0.00,VWS V14.01,2013-04-06 08:16:00,
2013-04-06 04:21:00,37.0,35.7,30.01,WNW,286,1.0,2.0,95,0.00,,---,0.00,VWS V14.01,2013-04-06 08:21:00,
2013-04-06 04:26:00,38.0,37.0,30.01,East,92,0.0,4.0,96,0.00,,---,0.00,VWS V14.01,2013-04-06 08:26:00,
2013-04-06 04:30:00,37.1,35.5,29.98,WNW,286,0.0,1.0,94,0.00,,---,0.00,VWS V14.01,2013-04-06 08:30:00,
2013-04-06 04:31:00,39.5,38.2,30.01,NE,34,1.0,1.0,95,0.00,,---,0.00,VWS V14.01,2013-04-06 08:31:00,
2013-04-06 04:36:00,41.2,38.5,30.02,East,97,1.0,2.0,90,0.00,,---,0.00,VWS V14.01,2013-04-06 08:36:00,
2013-04-06 04:41:00,42.7,37.9,30.02,ENE,69,2.0,4.0,83,0.00,,---,0.00,VWS V14.01,2013-04-06 08:41:00,
2013-04-06 04:46:00,44.1,38.3,30.02,SE,142,4.0,4.0,80,0.00,,---,0.00,VWS V14.01,2013-04-06 08:46:00,
2013-04-06 04:51:00,45.2,37.8,30.02,ENE,76,0.0,5.0,75,0.00,,---,0.00,VWS V14.01,2013-04-06 08:51:00,
2013-04-06 04:56:00,46.0,37.5,30.02,ENE,61,1.0,5.0,72,0.00,,---,0.00,VWS V14.01,2013-04-06 08:56:00,
2013-04-06 05:00:00,36.9,35.3,30.00,WNW,286,0.0,0.0,94,0.00,,---,0.00,VWS V14.01,2013-04-06 09:00:00,
2013-04-06 05:01:00,46.6,37.7,30.03,ESE,120,0.0,5.0,71,0.00,,---,0.00,VWS V14.01,2013-04-06 09:01:00,
2013-04-06 05:06:00,47.0,37.4,30.03,ENE,73,0.0,5.0,69,0.00,,---,0.00,VWS V14.01,2013-04-06 09:06:00,
2013-04-06 05:11:00,47.2,37.2,30.03,ENE,69,2.0,6.0,68,0.00,,---,0.00,VWS V14.01,2013-04-06 09:11:00,
2013-04-06 05:16:00,47.3,36.9,30.04,East,86,0.0,6.0,67,0.00,,---,0.00,VWS V14.01,2013-04-06 09:16:00,
2013-04-06 05:21:00,47.4,36.6,30.04,ESE,110,0.0,6.0,66,0.00,,---,0.00,VWS V14.01,2013-04-06 09:21:00,
2013-04-06 05:26:00,47.5,37.1,30.04,East,80,2.0,6.0,67,0.00,,---,0.00,VWS V14.01,2013-04-06 09:26:00,
2013-04-06 05:30:00,39.5,38.2,30.01,NE,34,0.0,9.0,95,0.00,,---,0.00,VWS V14.01,2013-04-06 09:30:00,
2013-04-06 05:31:00,47.6,36.8,30.04,East,88,0.0,3.0,66,0.00,,---,0.00,VWS V14.01,2013-04-06 09:31:00,
2013-04-06 05:36:00,47.5,36.7,30.04,ESE,123,2.0,5.0,66,0.00,,---,0.00,VWS V14.01,2013-04-06 09:36:00,
2013-04-06 05:41:00,47.4,36.6,30.04,ESE,111,2.0,5.0,66,0.00,,---,0.00,VWS V14.01,2013-04-06 09:41:00,
2013-04-06 05:46:00,47.3,36.5,30.05,ENE,75,1.0,5.0,66,0.00,,---,0.00,VWS V14.01,2013-04-06 09:46:00,
2013-04-06 05:51:00,47.2,36.4,30.04,East,94,0.0,5.0,66,0.00,,---,0.00,VWS V14.01,2013-04-06 09:51:00,
2013-04-06 05:56:00,47.0,36.6,30.04,ESE,104,1.0,5.0,67,0.00,,---,0.00,VWS V14.01,2013-04-06 09:56:00,
2013-04-06 06:00:00,46.6,37.7,30.03,ESE,120,0.0,5.0,71,0.00,,---,0.00,VWS V14.01,2013-04-06 10:00:00,
2013-04-06 06:01:00,46.8,36.4,30.04,ESE,104,0.0,0.0,67,0.00,,---,0.00,VWS V14.01,2013-04-06 10:01:00,
2013-04-06 06:06:00,46.5,36.2,30.05,ESE,104,0.0,0.0,67,0.00,,---,0.00,VWS V14.01,2013-04-06 10:06:00,
2013-04-06 06:11:00,46.3,36.3,30.05,ESE,104,0.0,0.0,68,0.00,,---,0.00,VWS V14.01,2013-04-06 10:11:00,
2013-04-06 06:17:00,46.0,36.4,30.05,ESE,104,0.0,0.0,69,0.00,,---,0.00,VWS V14.01,2013-04-06 10:17:00,
2013-04-06 06:22:00,45.7,35.8,30.06,ESE,104,0.0,1.0,68,0.00,,---,0.00,VWS V14.01,2013-04-06 10:22:00,
2013-04-06 06:27:00,45.6,36.0,30.06,ESE,104,0.0,1.0,69,0.00,,---,0.00,VWS V14.01,2013-04-06 10:27:00,
2013-04-06 06:30:00,47.5,36.7,30.04,East,88,1.0,6.0,66,0.00,,---,0.00,VWS V14.01,2013-04-06 10:30:00,
2013-04-06 06:32:00,45.4,36.6,30.07,ESE,104,0.0,0.0,71,0.00,,---,0.00,VWS V14.01,2013-04-06 10:32:00,
2013-04-06 06:37:00,45.2,36.7,30.07,ESE,104,0.0,0.0,72,0.00,,---,0.00,VWS V14.01,2013-04-06 10:37:00,
2013-04-06 06:42:00,44.8,36.3,30.07,ESE,104,0.0,0.0,72,0.00,,---,0.00,VWS V14.01,2013-04-06 10:42:00,
2013-04-06 06:47:00,44.3,36.2,30.08,ESE,104,0.0,0.0,73,0.00,,---,0.00,VWS V14.01,2013-04-06 10:47:00,
2013-04-06 06:52:00,43.9,35.8,30.08,ESE,104,0.0,1.0,73,0.00,,---,0.00,VWS V14.01,2013-04-06 10:52:00,
2013-04-06 06:57:00,43.6,35.2,30.09,ESE,104,2.0,2.0,72,0.00,,---,0.00,VWS V14.01,2013-04-06 10:57:00,
2013-04-06 07:00:00,46.8,36.4,30.04,ESE,104,0.0,5.0,67,0.00,,---,0.00,VWS V14.01,2013-04-06 11:00:00,
2013-04-06 07:02:00,43.5,35.4,30.09,ESE,104,0.0,0.0,73,0.00,,---,0.00,VWS V14.01,2013-04-06 11:02:00,
2013-04-06 07:07:00,43.4,35.7,30.09,ESE,104,0.0,1.0,74,0.00,,---,0.00,VWS V14.01,2013-04-06 11:07:00,
2013-04-06 07:12:00,43.3,34.9,30.09,ESE,104,0.0,1.0,72,0.00,,---,0.00,VWS V14.01,2013-04-06 11:12:00,
2013-04-06 07:17:00,43.4,35.3,30.10,ESE,104,0.0,1.0,73,0.00,,---,0.00,VWS V14.01,2013-04-06 11:17:00,
2013-04-06 07:22:00,43.4,35.3,30.10,ESE,104,0.0,1.0,73,0.00,,---,0.00,VWS V14.01,2013-04-06 11:22:00,
2013-04-06 07:27:00,43.6,34.8,30.10,ESE,103,0.0,2.0,71,0.00,,---,0.00,VWS V14.01,2013-04-06 11:27:00,
2013-04-06 07:30:00,45.5,36.3,30.06,ESE,104,0.0,1.0,70,0.00,,---,0.00,VWS V14.01,2013-04-06 11:30:00,
2013-04-06 07:32:00,43.8,34.7,30.10,ENE,68,1.0,2.0,70,0.00,,---,0.00,VWS V14.01,2013-04-06 11:32:00,
2013-04-06 07:33:00,43.8,34.3,30.10,East,97,2.0,2.0,69,0.00,,---,0.00,VWS V14.01,2013-04-06 11:33:00,
2013-04-06 07:38:00,44.5,34.6,30.10,East,101,1.0,5.0,68,0.00,,---,0.00,VWS V14.01,2013-04-06 11:38:00,
2013-04-06 07:43:00,44.9,35.0,30.10,East,88,0.0,5.0,68,0.00,,---,0.00,VWS V14.01,2013-04-06 11:43:00,
2013-04-06 07:48:00,45.3,34.6,30.11,East,96,0.0,5.0,66,0.00,,---,0.00,VWS V14.01,2013-04-06 11:48:00,
2013-04-06 07:53:00,45.7,35.0,30.11,ENE,75,0.0,6.0,66,0.00,,---,0.00,VWS V14.01,2013-04-06 11:53:00,
2013-04-06 07:58:00,46.0,34.9,30.11,ENE,73,1.0,6.0,65,0.00,,---,0.00,VWS V14.01,2013-04-06 11:58:00,
2013-04-06 08:00:00,43.5,35.4,30.09,ESE,104,0.0,2.0,73,0.00,,---,0.00,VWS V14.01,2013-04-06 12:00:00,
2013-04-06 08:03:00,46.3,34.8,30.12,East,88,4.0,5.0,64,0.00,,---,0.00,VWS V14.01,2013-04-06 12:03:00,
2013-04-06 08:08:00,46.8,34.9,30.12,ESE,115,2.0,5.0,63,0.00,,---,0.00,VWS V14.01,2013-04-06 12:08:00,
2013-04-06 08:13:00,47.4,35.0,30.12,East,89,1.0,5.0,62,0.00,,---,0.00,VWS V14.01,2013-04-06 12:13:00,
2013-04-06 08:18:00,47.8,34.6,30.13,East,98,4.0,6.0,60,0.00,,---,0.00,VWS V14.01,2013-04-06 12:18:00,
2013-04-06 08:23:00,48.3,34.7,30.14,East,91,2.0,10.0,59,0.00,,---,0.00,VWS V14.01,2013-04-06 12:23:00,
2013-04-06 08:28:00,48.6,34.5,30.14,ENE,66,3.0,10.0,58,0.00,,---,0.00,VWS V14.01,2013-04-06 12:28:00,
2013-04-06 08:30:00,43.7,34.6,30.10,SE,135,0.0,3.0,70,0.00,,---,0.00,VWS V14.01,2013-04-06 12:30:00,
2013-04-06 08:33:00,49.0,34.5,30.14,ENE,59,2.0,10.0,57,0.00,,---,0.00,VWS V14.01,2013-04-06 12:33:00,
2013-04-06 08:38:00,49.2,35.1,30.14,NE,45,0.0,10.0,58,0.00,,---,0.00,VWS V14.01,2013-04-06 12:38:00,
2013-04-06 08:43:00,49.5,34.9,30.14,NE,37,3.0,10.0,57,0.00,,---,0.00,VWS V14.01,2013-04-06 12:43:00,
2013-04-06 08:48:00,49.8,34.8,30.14,NNE,30,5.0,10.0,56,0.00,,---,0.00,VWS V14.01,2013-04-06 12:48:00,
2013-04-06 08:53:00,50.0,34.5,30.15,ESE,113,6.0,10.0,55,0.00,,---,0.00,VWS V14.01,2013-04-06 12:53:00,
2013-04-06 08:58:00,50.2,34.2,30.15,ENE,74,3.0,10.0,54,0.00,,---,0.00,VWS V14.01,2013-04-06 12:58:00,
2013-04-06 09:00:00,46.2,35.5,30.12,North,351,2.0,6.0,66,0.00,,---,0.00,VWS V14.01,2013-04-06 13:00:00,
2013-04-06 09:03:00,50.5,34.5,30.15,NE,36,2.0,9.0,54,0.00,,---,0.00,VWS V14.01,2013-04-06 13:03:00,
2013-04-06 09:08:00,50.8,34.3,30.15,ESE,113,8.0,10.0,53,0.00,,---,0.00,VWS V14.01,2013-04-06 13:08:00,
2013-04-06 09:13:00,51.1,35.0,30.15,ENE,69,3.0,10.0,54,0.00,,---,0.00,VWS V14.01,2013-04-06 13:13:00,
2013-04-06 09:18:00,51.5,35.0,30.15,ENE,70,3.0,10.0,53,0.00,,---,0.00,VWS V14.01,2013-04-06 13:18:00,
2013-04-06 09:23:00,51.8,35.2,30.15,East,85,3.0,10.0,53,0.00,,---,0.00,VWS V14.01,2013-04-06 13:23:00,
2013-04-06 09:28:00,52.1,34.5,30.15,ESE,105,2.0,11.0,51,0.00,,---,0.00,VWS V14.01,2013-04-06 13:28:00,
2013-04-06 09:30:00,48.8,34.7,30.14,ENE,76,2.0,10.0,58,0.00,,---,0.00,VWS V14.01,2013-04-06 13:30:00,
2013-04-06 09:33:00,52.3,35.2,30.15,ENE,76,2.0,3.0,52,0.00,,---,0.00,VWS V14.01,2013-04-06 13:33:00,
2013-04-06 09:38:00,52.5,33.9,30.15,NE,42,3.0,9.0,49,0.00,,---,0.00,VWS V14.01,2013-04-06 13:38:00,
2013-04-06 09:43:00,52.8,34.2,30.15,East,85,3.0,9.0,49,0.00,,---,0.00,VWS V14.01,2013-04-06 13:43:00,
2013-04-06 09:48:00,53.0,34.9,30.15,NE,52,3.0,9.0,50,0.00,,---,0.00,VWS V14.01,2013-04-06 13:48:00,
2013-04-06 09:53:00,53.3,34.1,30.15,East,95,0.0,9.0,48,0.00,,---,0.00,VWS V14.01,2013-04-06 13:53:00,
2013-04-06 09:58:00,53.5,34.3,30.16,NE,40,3.0,9.0,48,0.00,,---,0.00,VWS V14.01,2013-04-06 13:58:00,
2013-04-06 10:00:00,50.4,34.4,30.15,ESE,123,4.0,10.0,54,0.00,,---,0.00,VWS V14.01,2013-04-06 14:00:00,
2013-04-06 10:03:00,53.7,33.4,30.17,NNE,17,6.0,6.0,46,0.00,,---,0.00,VWS V14.01,2013-04-06 14:03:00,
2013-04-06 10:08:00,53.9,31.9,30.17,SSE,153,2.0,6.0,43,0.00,,---,0.00,VWS V14.01,2013-04-06 14:08:00,
2013-04-06 10:13:00,54.2,32.8,30.17,ESE,102,2.0,7.0,44,0.00,,---,0.00,VWS V14.01,2013-04-06 14:13:00,
2013-04-06 10:18:00,54.3,33.4,30.17,NNE,17,2.0,7.0,45,0.00,,---,0.00,VWS V14.01,2013-04-06 14:18:00,
2013-04-06 10:23:00,54.5,33.0,30.18,East,86,1.0,7.0,44,0.00,,---,0.00,VWS V14.01,2013-04-06 14:23:00,
2013-04-06 10:28:00,54.8,31.0,30.18,ENE,65,4.0,9.0,40,0.00,,---,0.00,VWS V14.01,2013-04-06 14:28:00,
2013-04-06 10:30:00,52.2,34.6,30.15,East,96,2.0,11.0,51,0.00,,---,0.00,VWS V14.01,2013-04-06 14:30:00,
2013-04-06 10:33:00,55.0,31.1,30.18,NNE,21,4.0,5.0,40,0.00,,---,0.00,VWS V14.01,2013-04-06 14:33:00,
2013-04-06 10:38:00,55.0,30.5,30.18,East,96,3.0,8.0,39,0.00,,---,0.00,VWS V14.01,2013-04-06 14:38:00,
2013-04-06 10:43:00,55.2,30.7,30.18,ENE,70,2.0,11.0,39,0.00,,---,0.00,VWS V14.01,2013-04-06 14:43:00,
2013-04-06 10:48:00,55.5,31.6,30.18,NE,44,4.0,11.0,40,0.00,,---,0.00,VWS V14.01,2013-04-06 14:48:00,
2013-04-06 10:53:00,55.8,30.6,30.19,East,86,5.0,11.0,38,0.00,,---,0.00,VWS V14.01,2013-04-06 14:53:00,
2013-04-06 10:58:00,55.9,32.6,30.19,NE,49,1.0,11.0,41,0.00,,---,0.00,VWS V14.01,2013-04-06 14:58:00,
2013-04-06 11:00:00,53.6,33.3,30.17,East,96,3.0,9.0,46,0.00,,---,0.00,VWS V14.01,2013-04-06 15:00:00,
2013-04-06 11:03:00,56.0,32.0,30.19,SE,126,9.0,11.0,40,0.00,,---,0.00,VWS V14.01,2013-04-06 15:03:00,
2013-04-06 11:08:00,56.0,30.8,30.19,NE,50,2.0,11.0,38,0.00,,---,0.00,VWS V14.01,2013-04-06 15:08:00,
2013-04-06 11:13:00,56.2,32.2,30.18,ESE,122,2.0,11.0,40,0.00,,---,0.00,VWS V14.01,2013-04-06 15:13:00,
2013-04-06 11:18:00,56.4,30.5,30.19,East,99,4.0,11.0,37,0.00,,---,0.00,VWS V14.01,2013-04-06 15:18:00,
2013-04-06 11:23:00,56.5,30.6,30.19,ESE,118,1.0,11.0,37,0.00,,---,0.00,VWS V14.01,2013-04-06 15:23:00,
2013-04-06 11:28:00,56.7,31.4,30.19,East,90,2.0,11.0,38,0.00,,---,0.00,VWS V14.01,2013-04-06 15:28:00,
2013-04-06 11:30:00,54.9,31.0,30.18,SSE,163,3.0,9.0,40,0.00,,---,0.00,VWS V14.01,2013-04-06 15:30:00,
2013-04-06 11:33:00,56.9,30.9,30.19,NE,42,1.0,6.0,37,0.00,,---,0.00,VWS V14.01,2013-04-06 15:33:00,
2013-04-06 11:38:00,57.2,31.2,30.19,NE,48,1.0,6.0,37,0.00,,---,0.00,VWS V14.01,2013-04-06 15:38:00,
2013-04-06 11:43:00,57.5,32.1,30.19,ESE,111,3.0,7.0,38,0.00,,---,0.00,VWS V14.01,2013-04-06 15:43:00,
2013-04-06 11:48:00,57.6,31.5,30.19,NNE,20,2.0,8.0,37,0.00,,---,0.00,VWS V14.01,2013-04-06 15:48:00,
2013-04-06 11:53:00,57.9,31.1,30.18,East,97,5.0,8.0,36,0.00,,---,0.00,VWS V14.01,2013-04-06 15:53:00,
2013-04-06 11:58:00,58.3,31.5,30.18,SE,133,2.0,10.0,36,0.00,,---,0.00,VWS V14.01,2013-04-06 15:58:00,
2013-04-06 12:00:00,56.0,31.4,30.19,ESE,111,5.0,11.0,39,0.00,,---,0.00,VWS V14.01,2013-04-06 16:00:00,
2013-04-06 12:03:00,58.5,31.7,30.18,ESE,117,1.0,4.0,36,0.00,,---,0.00,VWS V14.01,2013-04-06 16:03:00,
2013-04-06 12:08:00,58.7,31.1,30.19,NE,54,2.0,7.0,35,0.00,,---,0.00,VWS V14.01,2013-04-06 16:08:00,
2013-04-06 12:13:00,58.9,31.3,30.19,ENE,77,6.0,7.0,35,0.00,,---,0.00,VWS V14.01,2013-04-06 16:13:00,
2013-04-06 12:18:00,58.9,31.3,30.19,NE,51,3.0,7.0,35,0.00,,---,0.00,VWS V14.01,2013-04-06 16:18:00,
2013-04-06 12:23:00,59.1,30.8,30.19,East,92,0.0,7.0,34,0.00,,---,0.00,VWS V14.01,2013-04-06 16:23:00,
2013-04-06 12:28:00,59.5,31.1,30.19,NE,51,6.0,8.0,34,0.00,,---,0.00,VWS V14.01,2013-04-06 16:28:00,
2013-04-06 12:30:00,56.8,30.8,30.19,NE,36,1.0,11.0,37,0.00,,---,0.00,VWS V14.01,2013-04-06 16:30:00,
2013-04-06 12:33:00,59.8,32.8,30.19,ESE,107,5.0,6.0,36,0.00,,---,0.00,VWS V14.01,2013-04-06 16:33:00,
2013-04-06 12:38:00,59.8,32.8,30.18,East,81,0.0,6.0,36,0.00,,---,0.00,VWS V14.01,2013-04-06 16:38:00,
2013-04-06 12:43:00,59.9,31.5,30.18,ESE,105,2.0,9.0,34,0.00,,---,0.00,VWS V14.01,2013-04-06 16:43:00,
2013-04-06 12:48:00,60.1,33.1,30.18,SSE,166,2.0,9.0,36,0.00,,---,0.00,VWS V14.01,2013-04-06 16:48:00,
2013-04-06 12:53:00,60.4,33.3,30.18,NNE,30,1.0,9.0,36,0.00,,---,0.00,VWS V14.01,2013-04-06 16:53:00,
2013-04-06 12:59:00,60.7,31.5,30.18,SE,125,1.0,9.0,33,0.00,,---,0.00,VWS V14.01,2013-04-06 16:59:00,
2013-04-06 13:00:00,58.4,31.6,30.18,ESE,106,2.0,10.0,36,0.00,,---,0.00,VWS V14.01,2013-04-06 17:00:00,
2013-04-06 13:04:00,61.1,32.5,30.18,ENE,75,5.0,9.0,34,0.00,,---,0.00,VWS V14.01,2013-04-06 17:04:00,
2013-04-06 13:09:00,61.1,34.0,30.18,East,90,1.0,9.0,36,0.00,,---,0.00,VWS V14.01,2013-04-06 17:09:00,
2013-04-06 13:14:00,61.2,31.9,30.17,NNE,23,7.0,9.0,33,0.00,,---,0.00,VWS V14.01,2013-04-06 17:14:00,
2013-04-06 13:19:00,61.3,33.4,30.17,NNE,20,2.0,9.0,35,0.00,,---,0.00,VWS V14.01,2013-04-06 17:19:00,
2013-04-06 13:24:00,61.7,31.6,30.17,East,90,0.0,9.0,32,0.00,,---,0.00,VWS V14.01,2013-04-06 17:24:00,
2013-04-06 13:29:00,61.8,32.4,30.17,SE,138,1.0,9.0,33,0.00,,---,0.00,VWS V14.01,2013-04-06 17:29:00,
2013-04-06 13:30:00,59.7,32.7,30.19,East,101,3.0,8.0,36,0.00,,---,0.00,VWS V14.01,2013-04-06 17:30:00,
2013-04-06 13:34:00,61.8,33.2,30.17,East,98,2.0,6.0,34,0.00,,---,0.00,VWS V14.01,2013-04-06 17:34:00,
2013-04-06 13:39:00,61.8,32.4,30.17,NE,38,2.0,6.0,33,0.00,,---,0.00,VWS V14.01,2013-04-06 17:39:00,
2013-04-06 13:44:00,62.0,32.6,30.17,ESE,108,0.0,6.0,33,0.00,,---,0.00,VWS V14.01,2013-04-06 17:44:00,
2013-04-06 13:49:00,62.4,32.2,30.17,NNE,31,6.0,6.0,32,0.00,,---,0.00,VWS V14.01,2013-04-06 17:49:00,
2013-04-06 13:54:00,62.8,33.3,30.17,East,86,0.0,6.0,33,0.00,,---,0.00,VWS V14.01,2013-04-06 17:54:00,
2013-04-06 13:59:00,63.0,34.2,30.17,East,101,2.0,6.0,34,0.00,,---,0.00,VWS V14.01,2013-04-06 17:59:00,
2013-04-06 14:00:00,60.8,33.0,30.18,SE,125,0.0,9.0,35,0.00,,---,0.00,VWS V14.01,2013-04-06 18:00:00,
2013-04-06 14:04:00,63.1,34.3,30.16,NE,51,3.0,6.0,34,0.00,,---,0.00,VWS V14.01,2013-04-06 18:04:00,
2013-04-06 14:09:00,63.2,33.6,30.16,ESE,117,0.0,7.0,33,0.00,,---,0.00,VWS V14.01,2013-04-06 18:09:00,
2013-04-06 14:15:00,63.1,32.8,30.16,NNW,348,3.0,7.0,32,0.00,,---,0.00,VWS V14.01,2013-04-06 18:15:00,
2013-04-06 14:20:00,63.2,33.6,30.16,ENE,59,1.0,7.0,33,0.00,,---,0.00,VWS V14.01,2013-04-06 18:20:00,
2013-04-06 14:25:00,63.3,33.7,30.16,SSE,147,2.0,7.0,33,0.00,,---,0.00,VWS V14.01,2013-04-06 18:25:00,
2013-04-06 14:30:00,63.4,33.0,30.15,SSE,154,1.0,7.0,32,0.00,,---,0.00,VWS V14.01,2013-04-06 18:30:00,
2013-04-06 14:35:00,63.7,33.3,30.15,SE,125,0.0,4.0,32,0.00,,---,0.00,VWS V14.01,2013-04-06 18:35:00,
2013-04-06 14:40:00,64.2,36.0,30.15,ESE,111,4.0,4.0,35,0.00,,---,0.00,VWS V14.01,2013-04-06 18:40:00,
2013-04-06 14:45:00,64.2,33.0,30.15,ESE,102,0.0,4.0,31,0.00,,---,0.00,VWS V14.01,2013-04-06 18:45:00,
2013-04-06 14:50:00,64.2,33.0,30.15,NE,56,1.0,5.0,31,0.00,,---,0.00,VWS V14.01,2013-04-06 18:50:00,
2013-04-06 14:55:00,64.4,35.5,30.14,NNE,27,2.0,5.0,34,0.00,,---,0.00,VWS V14.01,2013-04-06 18:55:00,
2013-04-06 15:00:00,64.8,34.3,30.14,NNE,14,0.0,5.0,32,0.00,,---,0.00,VWS V14.01,2013-04-06 19:00:00,
2013-04-06 15:05:00,65.0,36.7,30.14,SSE,157,0.0,5.0,35,0.00,,---,0.00,VWS V14.01,2013-04-06 19:05:00,
2013-04-06 15:10:00,64.8,34.3,30.14,ENE,74,2.0,6.0,32,0.00,,---,0.00,VWS V14.01,2013-04-06 19:10:00,
2013-04-06 15:15:00,64.8,34.3,30.14,ESE,123,0.0,6.0,32,0.00,,---,0.00,VWS V14.01,2013-04-06 19:15:00,
2013-04-06 15:20:00,65.0,36.0,30.14,NW,314,4.0,6.0,34,0.00,,---,0.00,VWS V14.01,2013-04-06 19:20:00,
2013-04-06 15:25:00,65.5,37.2,30.14,NW,311,1.0,6.0,35,0.00,,---,0.00,VWS V14.01,2013-04-06 19:25:00,
2013-04-06 15:30:00,65.7,34.3,30.14,NNW,344,0.0,6.0,31,0.00,,---,0.00,VWS V14.01,2013-04-06 19:30:00,
2013-04-06 15:35:00,65.7,34.3,30.13,East,98,3.0,4.0,31,0.00,,---,0.00,VWS V14.01,2013-04-06 19:35:00,
2013-04-06 15:40:00,65.5,34.9,30.13,ESE,109,2.0,7.0,32,0.00,,---,0.00,VWS V14.01,2013-04-06 19:40:00,
2013-04-06 15:45:00,65.4,34.8,30.13,East,94,5.0,7.0,32,0.00,,---,0.00,VWS V14.01,2013-04-06 19:45:00,
2013-04-06 15:50:00,65.2,35.4,30.13,East,95,1.0,7.0,33,0.00,,---,0.00,VWS V14.01,2013-04-06 19:50:00,
2013-04-06 15:55:00,65.0,33.7,30.13,ENE,77,2.0,7.0,31,0.00,,---,0.00,VWS V14.01,2013-04-06 19:55:00,
2013-04-06 16:00:00,65.1,34.5,30.12,East,87,2.0,7.0,32,0.00,,---,0.00,VWS V14.01,2013-04-06 20:00:00,
2013-04-06 16:05:00,65.1,36.1,30.12,East,94,2.0,2.0,34,0.00,,---,0.00,VWS V14.01,2013-04-06 20:05:00,
2013-04-06 16:10:00,65.2,34.6,30.12,NNE,24,2.0,5.0,32,0.00,,---,0.00,VWS V14.01,2013-04-06 20:10:00,
2013-04-06 16:15:00,65.3,36.2,30.12,West,271,1.0,5.0,34,0.00,,---,0.00,VWS V14.01,2013-04-06 20:15:00,
2013-04-06 16:20:00,65.7,34.3,30.12,NNE,26,4.0,5.0,31,0.00,,---,0.00,VWS V14.01,2013-04-06 20:20:00,
2013-04-06 16:25:00,65.7,36.6,30.12,SE,133,1.0,5.0,34,0.00,,---,0.00,VWS V14.01,2013-04-06 20:25:00,
2013-04-06 16:30:00,65.9,35.2,30.12,ESE,115,1.0,5.0,32,0.00,,---,0.00,VWS V14.01,2013-04-06 20:30:00,
2013-04-06 16:35:00,65.9,35.2,30.11,East,88,1.0,5.0,32,0.00,,---,0.00,VWS V14.01,2013-04-06 20:35:00,
2013-04-06 16:40:00,66.0,34.5,30.11,NE,38,1.0,5.0,31,0.00,,---,0.00,VWS V14.01,2013-04-06 20:40:00,
2013-04-06 16:45:00,66.2,35.5,30.11,ENE,72,1.0,5.0,32,0.00,,---,0.00,VWS V14.01,2013-04-06 20:45:00,
2013-04-06 16:50:00,66.2,34.7,30.11,North,349,2.0,5.0,31,0.00,,---,0.00,VWS V14.01,2013-04-06 20:50:00,
2013-04-06 16:55:00,66.4,36.5,30.11,East,81,1.0,5.0,33,0.00,,---,0.00,VWS V14.01,2013-04-06 20:55:00,
2013-04-06 17:00:00,66.2,34.7,30.11,ESE,104,0.0,5.0,31,0.00,,---,0.00,VWS V14.01,2013-04-06 21:00:00,
2013-04-06 17:05:00,66.2,34.7,30.11,East,88,0.0,3.0,31,0.00,,---,0.00,VWS V14.01,2013-04-06 21:05:00,
2013-04-06 17:10:00,66.1,35.4,30.11,ESE,107,1.0,5.0,32,0.00,,---,0.00,VWS V14.01,2013-04-06 21:10:00,
2013-04-06 17:15:00,66.1,35.4,30.11,SE,130,0.0,5.0,32,0.00,,---,0.00,VWS V14.01,2013-04-06 21:15:00,
2013-04-06 17:20:00,66.4,34.9,30.11,ESE,104,1.0,5.0,31,0.00,,---,0.00,VWS V14.01,2013-04-06 21:20:00,
2013-04-06 17:25:00,66.4,34.9,30.11,ESE,104,0.0,5.0,31,0.00,,---,0.00,VWS V14.01,2013-04-06 21:25:00,
2013-04-06 17:30:00,66.4,35.7,30.11,ESE,109,2.0,5.0,32,0.00,,---,0.00,VWS V14.01,2013-04-06 21:30:00,
2013-04-06 17:35:00,66.3,35.6,30.11,East,95,2.0,4.0,32,0.00,,---,0.00,VWS V14.01,2013-04-06 21:35:00,
2013-04-06 17:40:00,66.0,34.5,30.11,NE,34,1.0,4.0,31,0.00,,---,0.00,VWS V14.01,2013-04-06 21:40:00,
2013-04-06 17:45:00,65.8,35.9,30.11,East,101,0.0,4.0,33,0.00,,---,0.00,VWS V14.01,2013-04-06 21:45:00,
2013-04-06 17:50:00,65.7,35.1,30.11,SE,136,0.0,4.0,32,0.00,,---,0.00,VWS V14.01,2013-04-06 21:50:00,
2013-04-06 17:55:00,65.6,35.8,30.11,ENE,78,1.0,4.0,33,0.00,,---,0.00,VWS V14.01,2013-04-06 21:55:00,
2013-04-06 18:00:00,65.5,34.9,30.11,ESE,107,0.0,4.0,32,0.00,,---,0.00,VWS V14.01,2013-04-06 22:00:00,
2013-04-06 18:05:00,65.5,35.7,30.11,East,94,1.0,5.0,33,0.00,,---,0.00,VWS V14.01,2013-04-06 22:05:00,
2013-04-06 18:10:00,65.4,34.0,30.11,East,94,0.0,5.0,31,0.00,,---,0.00,VWS V14.01,2013-04-06 22:10:00,
2013-04-06 18:15:00,65.4,36.3,30.11,East,94,0.0,5.0,34,0.00,,---,0.00,VWS V14.01,2013-04-06 22:15:00,
2013-04-06 18:20:00,65.5,35.7,30.12,East,81,0.0,5.0,33,0.00,,---,0.00,VWS V14.01,2013-04-06 22:20:00,
2013-04-06 18:25:00,65.4,34.8,30.12,East,81,0.0,5.0,32,0.00,,---,0.00,VWS V14.01,2013-04-06 22:25:00,
2013-04-06 18:30:00,65.3,36.2,30.12,East,81,0.0,5.0,34,0.00,,---,0.00,VWS V14.01,2013-04-06 22:30:00,
2013-04-06 18:35:00,65.2,35.4,30.12,East,81,0.0,0.0,33,0.00,,---,0.00,VWS V14.01,2013-04-06 22:35:00,
2013-04-06 18:40:00,65.1,36.8,30.12,East,81,0.0,0.0,35,0.00,,---,0.00,VWS V14.01,2013-04-06 22:40:00,
2013-04-06 18:45:00,65.0,38.8,30.12,East,81,0.0,0.0,38,0.00,,---,0.00,VWS V14.01,2013-04-06 22:45:00,
2013-04-06 18:50:00,64.7,43.5,30.12,East,81,0.0,0.0,46,0.00,,---,0.00,VWS V14.01,2013-04-06 22:50:00,
2013-04-06 18:55:00,64.5,40.9,30.13,East,81,0.0,0.0,42,0.00,,---,0.00,VWS V14.01,2013-04-06 22:55:00,
2013-04-06 19:00:00,64.1,39.9,30.12,East,81,0.0,0.0,41,0.00,,---,0.00,VWS V14.01,2013-04-06 23:00:00,
2013-04-06 19:05:00,63.7,42.5,30.12,East,81,0.0,0.0,46,0.00,,---,0.00,VWS V14.01,2013-04-06 23:05:00,
2013-04-06 19:10:00,63.2,42.7,30.12,East,81,0.0,0.0,47,0.00,,---,0.00,VWS V14.01,2013-04-06 23:10:00,
2013-04-06 19:15:00,62.8,43.9,30.12,East,81,0.0,0.0,50,0.00,,---,0.00,VWS V14.01,2013-04-06 23:15:00,
2013-04-06 19:20:00,62.2,42.3,30.13,East,81,0.0,0.0,48,0.00,,---,0.00,VWS V14.01,2013-04-06 23:20:00,
2013-04-06 19:25:00,61.8,43.0,30.13,East,81,0.0,0.0,50,0.00,,---,0.00,VWS V14.01,2013-04-06 23:25:00,
2013-04-06 19:30:00,61.2,43.0,30.13,East,81,0.0,0.0,51,0.00,,---,0.00,VWS V14.01,2013-04-06 23:30:00,
2013-04-06 19:35:00,60.6,43.9,30.13,East,81,0.0,0.0,54,0.00,,---,0.00,VWS V14.01,2013-04-06 23:35:00,
2013-04-06 19:40:00,60.0,43.3,30.13,East,81,0.0,0.0,54,0.00,,---,0.00,VWS V14.01,2013-04-06 23:40:00,
2013-04-06 19:45:00,59.3,43.2,30.13,East,81,0.0,0.0,55,0.00,,---,0.00,VWS V14.01,2013-04-06 23:45:00,
2013-04-06 19:50:00,58.7,42.6,30.14,East,81,0.0,0.0,55,0.00,,---,0.00,VWS V14.01,2013-04-06 23:50:00,
2013-04-06 19:55:00,58.2,43.1,30.14,East,81,0.0,0.0,57,0.00,,---,0.00,VWS V14.01,2013-04-06 23:55:00,
2013-04-06 20:00:00,64.1,39.9,30.12,East,81,0.0,0.0,41,0.00,,---,0.00,VWS V14.01,2013-04-07 00:00:00,
2013-04-06 20:01:00,57.6,43.0,30.14,East,81,0.0,0.0,58,0.00,,---,0.00,VWS V14.01,2013-04-07 00:01:00,
2013-04-06 20:06:00,57.2,43.0,30.14,East,81,0.0,0.0,59,0.00,,---,0.00,VWS V14.01,2013-04-07 00:06:00,
2013-04-06 20:11:00,56.6,43.3,30.14,East,81,0.0,0.0,61,0.00,,---,0.00,VWS V14.01,2013-04-07 00:11:00,
2013-04-06 20:16:00,55.9,43.1,30.14,East,81,0.0,0.0,62,0.00,,---,0.00,VWS V14.01,2013-04-07 00:16:00,
2013-04-06 20:21:00,55.3,42.9,30.14,East,81,0.0,0.0,63,0.00,,---,0.00,VWS V14.01,2013-04-07 00:21:00,
2013-04-06 20:26:00,54.9,44.2,30.15,East,81,0.0,0.0,67,0.00,,---,0.00,VWS V14.01,2013-04-07 00:26:00,
2013-04-06 20:30:00,61.2,43.0,30.13,East,81,0.0,0.0,51,0.00,,---,0.00,VWS V14.01,2013-04-07 00:30:00,
2013-04-06 20:31:00,54.4,43.3,30.15,East,81,0.0,0.0,66,0.00,,---,0.00,VWS V14.01,2013-04-07 00:31:00,
2013-04-06 20:36:00,53.8,43.5,30.14,East,81,0.0,0.0,68,0.00,,---,0.00,VWS V14.01,2013-04-07 00:36:00,
2013-04-06 20:41:00,53.3,43.4,30.15,East,81,0.0,0.0,69,0.00,,---,0.00,VWS V14.01,2013-04-07 00:41:00,
2013-04-06 20:46:00,52.9,43.0,30.15,East,81,0.0,0.0,69,0.00,,---,0.00,VWS V14.01,2013-04-07 00:46:00,
2013-04-06 20:52:00,52.5,43.4,30.15,East,81,0.0,0.0,71,0.00,,---,0.00,VWS V14.01,2013-04-07 00:52:00,
2013-04-06 20:57:00,52.1,43.4,30.15,East,81,0.0,0.0,72,0.00,,---,0.00,VWS V14.01,2013-04-07 00:57:00,
2013-04-06 21:00:00,57.6,43.0,30.14,East,81,0.0,0.0,58,0.00,,---,0.00,VWS V14.01,2013-04-07 01:00:00,
2013-04-06 21:02:00,51.7,43.3,30.15,East,81,0.0,1.0,73,0.00,,---,0.00,VWS V14.01,2013-04-07 01:02:00,
2013-04-06 21:07:00,51.3,43.3,30.15,East,81,0.0,1.0,74,0.00,,---,0.00,VWS V14.01,2013-04-07 01:07:00,
2013-04-06 21:12:00,51.0,43.0,30.15,East,81,0.0,1.0,74,0.00,,---,0.00,VWS V14.01,2013-04-07 01:12:00,
2013-04-06 21:17:00,50.8,42.8,30.15,East,81,0.0,1.0,74,0.00,,---,0.00,VWS V14.01,2013-04-07 01:17:00,
2013-04-06 21:22:00,50.5,42.9,30.15,East,81,0.0,1.0,75,0.00,,---,0.00,VWS V14.01,2013-04-07 01:22:00,
2013-04-06 21:27:00,50.3,42.3,30.15,East,81,0.0,1.0,74,0.00,,---,0.00,VWS V14.01,2013-04-07 01:27:00,
2013-04-06 21:30:00,54.4,43.3,30.15,East,81,0.0,0.0,66,0.00,,---,0.00,VWS V14.01,2013-04-07 01:30:00,
2013-04-06 21:32:00,50.0,42.4,30.15,East,81,0.0,0.0,75,0.00,,---,0.00,VWS V14.01,2013-04-07 01:32:00,
2013-04-06 21:37:00,49.7,42.5,30.15,East,81,0.0,0.0,76,0.00,,---,0.00,VWS V14.01,2013-04-07 01:37:00,
2013-04-06 21:42:00,49.5,42.3,30.16,East,81,0.0,0.0,76,0.00,,---,0.00,VWS V14.01,2013-04-07 01:42:00,
2013-04-06 21:47:00,49.2,42.3,30.16,East,81,0.0,0.0,77,0.00,,---,0.00,VWS V14.01,2013-04-07 01:47:00,
2013-04-06 21:52:00,49.0,42.1,30.16,East,81,0.0,0.0,77,0.00,,---,0.00,VWS V14.01,2013-04-07 01:52:00,
2013-04-06 21:57:00,48.7,41.8,30.16,East,81,0.0,0.0,77,0.00,,---,0.00,VWS V14.01,2013-04-07 01:57:00,
2013-04-06 22:00:00,51.8,43.4,30.15,East,81,0.0,0.0,73,0.00,,---,0.00,VWS V14.01,2013-04-07 02:00:00,
2013-04-06 22:02:00,48.4,41.9,30.16,East,81,0.0,0.0,78,0.00,,---,0.00,VWS V14.01,2013-04-07 02:02:00,
2013-04-06 22:07:00,48.2,41.7,30.16,East,81,0.0,0.0,78,0.00,,---,0.00,VWS V14.01,2013-04-07 02:07:00,
2013-04-06 22:12:00,48.0,41.5,30.17,East,81,0.0,0.0,78,0.00,,---,0.00,VWS V14.01,2013-04-07 02:12:00,
2013-04-06 22:17:00,47.7,41.2,30.17,East,81,0.0,0.0,78,0.00,,---,0.00,VWS V14.01,2013-04-07 02:17:00,
2013-04-06 22:22:00,47.4,41.2,30.17,East,81,0.0,0.0,79,0.00,,---,0.00,VWS V14.01,2013-04-07 02:22:00,
2013-04-06 22:27:00,47.1,40.9,30.17,East,81,0.0,0.0,79,0.00,,---,0.00,VWS V14.01,2013-04-07 02:27:00,
2013-04-06 22:30:00,50.1,42.5,30.15,East,81,0.0,1.0,75,0.00,,---,0.00,VWS V14.01,2013-04-07 02:30:00,
2013-04-06 22:32:00,46.9,40.7,30.17,East,81,0.0,0.0,79,0.00,,---,0.00,VWS V14.01,2013-04-07 02:32:00,
2013-04-06 22:37:00,46.8,41.0,30.17,East,81,0.0,0.0,80,0.00,,---,0.00,VWS V14.01,2013-04-07 02:37:00,
2013-04-06 22:42:00,46.7,40.9,30.18,East,81,0.0,1.0,80,0.00,,---,0.00,VWS V14.01,2013-04-07 02:42:00,
2013-04-06 22:47:00,46.5,40.7,30.18,East,81,0.0,1.0,80,0.00,,---,0.00,VWS V14.01,2013-04-07 02:47:00,
2013-04-06 22:52:00,46.4,39.9,30.18,SSE,154,0.0,3.0,78,0.00,,---,0.00,VWS V14.01,2013-04-07 02:52:00,
2013-04-06 22:57:00,46.5,40.0,30.18,SSE,149,0.0,3.0,78,0.00,,---,0.00,VWS V14.01,2013-04-07 02:57:00,
2013-04-06 23:00:00,48.5,42.0,30.16,East,81,0.0,0.0,78,0.00,,---,0.00,VWS V14.01,2013-04-07 03:00:00,
2013-04-06 23:02:00,47.0,39.8,30.18,ENE,57,0.0,0.0,76,0.00,,---,0.00,VWS V14.01,2013-04-07 03:02:00,
2013-04-06 23:07:00,47.4,39.9,30.18,ENE,57,0.0,0.0,75,0.00,,---,0.00,VWS V14.01,2013-04-07 03:07:00,
2013-04-06 23:12:00,47.6,40.1,30.18,ENE,57,0.0,1.0,75,0.00,,---,0.00,VWS V14.01,2013-04-07 03:12:00,
2013-04-06 23:17:00,48.0,40.1,30.18,NNE,18,1.0,3.0,74,0.00,,---,0.00,VWS V14.01,2013-04-07 03:17:00,
2013-04-06 23:22:00,48.4,40.5,30.19,NNW,335,0.0,3.0,74,0.00,,---,0.00,VWS V14.01,2013-04-07 03:22:00,
2013-04-06 23:27:00,48.7,40.8,30.19,ESE,110,0.0,4.0,74,0.00,,---,0.00,VWS V14.01,2013-04-07 03:27:00,
2013-04-06 23:30:00,47.0,40.8,30.17,East,81,0.0,0.0,79,0.00,,---,0.00,VWS V14.01,2013-04-07 03:30:00,
2013-04-06 23:32:00,49.2,40.9,30.18,ENE,75,0.0,1.0,73,0.00,,---,0.00,VWS V14.01,2013-04-07 03:32:00,
2013-04-06 23:37:00,49.5,40.9,30.19,NW,311,0.0,3.0,72,0.00,,---,0.00,VWS V14.01,2013-04-07 03:37:00,
2013-04-06 23:42:00,49.6,41.0,30.19,NW,311,1.0,3.0,72,0.00,,---,0.00,VWS V14.01,2013-04-07 03:42:00,
2013-04-06 23:47:00,49.7,40.7,30.19,ESE,116,0.0,3.0,71,0.00,,---,0.00,VWS V14.01,2013-04-07 03:47:00,
2013-04-06 23:52:00,49.9,40.9,30.19,WSW,242,3.0,5.0,71,0.00,,---,0.00,VWS V14.01,2013-04-07 03:52:00,
2013-04-06 23:57:00,50.1,40.7,30.19,South,186,0.0,5.0,70,0.00,,---,0.00,VWS V14.01,2013-04-07 03:57:00,